createdAt,value
2023-03-27T00:02:23.169Z,9.20
2023-03-27T00:05:28.071Z,8.60
2023-03-27T00:08:32.597Z,9.30
2023-03-27T00:11:36.614Z,12.90
2023-03-27T00:14:41.436Z,10.90
2023-03-27T00:20:51.729Z,8.80
2023-03-27T00:23:56.161Z,8.10
2023-03-27T00:27:00.156Z,9.40
2023-03-27T00:30:06.359Z,9.40
2023-03-27T00:33:14.476Z,8.40
2023-03-27T00:36:18.375Z,9.60
2023-03-27T00:39:23.714Z,9.70
2023-03-27T00:42:28.240Z,8.30
2023-03-27T00:45:33.802Z,8.70
2023-03-27T00:48:38.046Z,9.10
2023-03-27T00:51:46.802Z,8.20
2023-03-27T00:54:52.270Z,8.40
2023-03-27T00:58:01.941Z,8.90
2023-03-27T01:01:09.924Z,8.50
2023-03-27T01:04:21.344Z,8.60
2023-03-27T01:07:25.458Z,9.00
2023-03-27T01:10:59.114Z,9.00
2023-03-27T01:14:21.615Z,7.70
2023-03-27T01:21:00.463Z,8.80
2023-03-27T01:24:16.900Z,9.50
2023-03-27T01:27:31.331Z,8.20
2023-03-27T01:30:49.081Z,9.30
2023-03-27T01:33:58.944Z,9.10
2023-03-27T01:37:21.867Z,9.70
2023-03-27T01:40:33.281Z,9.00
2023-03-27T01:43:57.470Z,8.90
2023-03-27T01:47:32.746Z,9.00
2023-03-27T01:50:44.978Z,11.10
2023-03-27T01:54:18.010Z,12.40
2023-03-27T01:57:34.511Z,11.00
2023-03-27T02:00:52.453Z,10.30
2023-03-27T02:04:02.947Z,12.60
2023-03-27T02:07:12.687Z,10.80
2023-03-27T02:10:23.042Z,10.90
2023-03-27T02:13:32.655Z,10.00
2023-03-27T02:16:46.503Z,11.70
2023-03-27T02:20:20.554Z,10.90
2023-03-27T02:23:24.585Z,8.80
2023-03-27T02:26:30.228Z,11.20
2023-03-27T02:30:04.150Z,9.60
2023-03-27T02:36:48.357Z,9.00
2023-03-27T02:40:14.260Z,10.00
2023-03-27T02:43:26.362Z,9.80
2023-03-27T02:46:41.532Z,9.90
2023-03-27T02:49:57.024Z,10.60
2023-03-27T02:53:04.952Z,9.50
2023-03-27T02:56:12.017Z,9.70
2023-03-27T02:59:25.764Z,8.80
2023-03-27T03:02:34.064Z,9.10
2023-03-27T03:05:38.435Z,9.90
2023-03-27T03:08:42.821Z,8.60
2023-03-27T03:11:54.288Z,8.60
2023-03-27T03:14:59.035Z,8.40
2023-03-27T03:18:03.432Z,8.40
2023-03-27T03:21:08.650Z,8.70
2023-03-27T03:24:13.059Z,8.00
2023-03-27T03:27:21.179Z,7.60
2023-03-27T03:30:43.050Z,8.40
2023-03-27T03:33:48.853Z,10.10
2023-03-27T03:36:55.312Z,8.60
2023-03-27T03:40:03.146Z,8.40
2023-03-27T03:43:08.459Z,8.00
2023-03-27T03:46:12.594Z,8.70
2023-03-27T03:49:17.837Z,8.30
2023-03-27T03:52:21.962Z,8.40
2023-03-27T03:55:26.778Z,8.60
2023-03-27T03:58:34.972Z,8.00
2023-03-27T04:01:41.712Z,8.00
2023-03-27T04:04:46.736Z,10.80
2023-03-27T04:07:51.520Z,9.00
2023-03-27T04:11:01.852Z,9.20
2023-03-27T04:14:24.797Z,10.00
2023-03-27T04:17:33.561Z,8.90
2023-03-27T04:20:38.326Z,8.40
2023-03-27T04:23:48.382Z,8.70
2023-03-27T04:26:58.238Z,8.20
2023-03-27T04:30:02.469Z,10.60
2023-03-27T04:33:25.863Z,9.10
2023-03-27T04:40:02.175Z,8.10
2023-03-27T04:43:07.729Z,8.70
2023-03-27T04:46:11.810Z,9.40
2023-03-27T04:49:19.252Z,8.90
2023-03-27T04:52:34.688Z,8.50
2023-03-27T04:55:38.588Z,9.10
2023-03-27T04:58:45.805Z,9.70
2023-03-27T05:01:51.658Z,9.80
2023-03-27T05:05:06.072Z,10.90
2023-03-27T05:08:13.204Z,10.10
2023-03-27T05:11:17.213Z,12.20
2023-03-27T05:14:23.550Z,11.40
2023-03-27T05:17:28.150Z,11.30
2023-03-27T05:20:32.943Z,10.60
2023-03-27T05:23:41.157Z,13.10
2023-03-27T05:26:45.377Z,10.80
2023-03-27T05:29:49.393Z,11.50
2023-03-27T05:36:06.243Z,10.60
2023-03-27T05:39:13.188Z,10.80
2023-03-27T05:42:19.091Z,11.70
2023-03-27T05:45:24.283Z,12.60
2023-03-27T05:48:29.059Z,12.40
2023-03-27T05:51:36.632Z,13.20
2023-03-27T05:54:40.815Z,11.00
2023-03-27T05:57:47.331Z,13.90
2023-03-27T06:00:51.647Z,13.10
2023-03-27T06:03:58.227Z,13.00
2023-03-27T06:07:10.481Z,12.70
2023-03-27T06:10:17.889Z,13.50
2023-03-27T06:13:49.720Z,12.70
2023-03-27T06:16:57.298Z,12.50
2023-03-27T06:20:15.703Z,12.40
2023-03-27T06:23:26.441Z,11.50
2023-03-27T06:26:30.727Z,12.50
2023-03-27T06:29:37.559Z,11.70
2023-03-27T06:32:54.321Z,13.30
2023-03-27T06:36:00.991Z,12.90
2023-03-27T06:39:09.666Z,11.40
2023-03-27T06:42:14.193Z,12.00
2023-03-27T06:45:50.969Z,11.90
2023-03-27T06:52:08.228Z,9.10
2023-03-27T06:55:15.120Z,10.60
2023-03-27T06:58:27.705Z,10.70
2023-03-27T07:01:32.571Z,9.90
2023-03-27T07:05:03.838Z,10.50
2023-03-27T07:11:24.108Z,7.20
2023-03-27T07:14:31.768Z,9.80
2023-03-27T07:17:48.104Z,8.40
2023-03-27T07:20:53.156Z,8.70
2023-03-27T07:23:59.759Z,8.80
2023-03-27T07:27:09.616Z,7.20
2023-03-27T07:30:14.610Z,7.90
2023-03-27T07:33:20.772Z,7.60
2023-03-27T07:36:25.345Z,6.90
2023-03-27T07:39:42.261Z,7.40
2023-03-27T07:42:48.151Z,6.80
2023-03-27T07:45:56.566Z,5.90
2023-03-27T07:49:02.098Z,5.90
2023-03-27T07:52:06.736Z,6.20
2023-03-27T07:55:19.062Z,7.40
2023-03-27T07:58:32.724Z,5.30
2023-03-27T08:01:37.191Z,5.80
2023-03-27T08:04:41.789Z,5.90
2023-03-27T08:07:48.104Z,4.40
2023-03-27T08:11:04.565Z,5.70
2023-03-27T08:14:13.143Z,5.90
2023-03-27T08:17:18.228Z,6.40
2023-03-27T08:20:25.262Z,5.30
2023-03-27T08:23:31.219Z,5.40
2023-03-27T08:26:55.307Z,4.90
2023-03-27T08:33:05.058Z,4.90
2023-03-27T08:36:11.914Z,4.10
2023-03-27T08:39:16.092Z,4.30
2023-03-27T08:42:41.195Z,3.40
2023-03-27T08:45:59.619Z,3.30
2023-03-27T08:49:21.070Z,3.10
2023-03-27T08:52:45.607Z,3.60
2023-03-27T08:55:56.523Z,3.60
2023-03-27T08:59:16.820Z,3.30
2023-03-27T09:02:39.863Z,3.40
2023-03-27T09:06:02.217Z,2.60
2023-03-27T09:09:23.002Z,3.00
2023-03-27T09:12:54.617Z,1.80
2023-03-27T09:16:20.082Z,2.50
2023-03-27T09:19:38.615Z,2.60
2023-03-27T09:22:48.586Z,2.30
2023-03-27T09:26:06.953Z,2.20
2023-03-27T09:29:34.778Z,2.00
2023-03-27T09:32:51.785Z,2.80
2023-03-27T09:35:59.028Z,3.10
2023-03-27T09:39:08.223Z,2.20
2023-03-27T09:42:19.614Z,2.20
2023-03-27T09:45:24.942Z,2.20
2023-03-27T09:48:41.368Z,2.20
2023-03-27T09:51:52.063Z,2.20
2023-03-27T09:55:34.272Z,2.20
2023-03-27T09:58:49.382Z,1.30
2023-03-27T10:01:59.614Z,2.10
2023-03-27T10:05:18.871Z,2.20
2023-03-27T10:08:39.173Z,1.90
2023-03-27T10:11:50.445Z,2.20
2023-03-27T10:15:01.813Z,3.30
2023-03-27T10:18:21.490Z,2.00
2023-03-27T10:21:33.474Z,2.10
2023-03-27T10:24:45.679Z,2.10
2023-03-27T10:28:10.047Z,1.60
2023-03-27T10:31:33.211Z,2.20
2023-03-27T10:34:58.104Z,1.70
2023-03-27T10:38:40.912Z,1.90
2023-03-27T10:42:06.424Z,1.80
2023-03-27T10:45:21.012Z,2.10
2023-03-27T10:48:47.654Z,2.10
2023-03-27T10:52:29.347Z,2.10
2023-03-27T10:55:57.616Z,2.10
2023-03-27T10:59:40.662Z,1.90
2023-03-27T11:03:09.771Z,1.80
2023-03-27T11:06:18.282Z,1.90
2023-03-27T11:09:38.640Z,1.90
2023-03-27T11:13:01.941Z,2.20
2023-03-27T11:16:35.095Z,1.50
2023-03-27T11:20:07.572Z,1.20
2023-03-27T11:23:57.660Z,2.00
2023-03-27T11:27:32.779Z,1.60
2023-03-27T11:30:44.673Z,1.80
2023-03-27T11:34:06.011Z,2.10
2023-03-27T11:37:39.822Z,2.40
2023-03-27T11:40:47.825Z,1.90
2023-03-27T11:43:52.098Z,1.90
2023-03-27T11:47:27.855Z,1.90
2023-03-27T11:50:59.752Z,2.70
2023-03-27T11:54:27.827Z,2.40
2023-03-27T11:57:56.882Z,1.90
2023-03-27T12:01:28.649Z,3.10
2023-03-27T12:04:50.761Z,2.20
2023-03-27T12:08:29.700Z,2.20
2023-03-27T12:11:42.541Z,2.30
2023-03-27T12:15:08.781Z,1.70
2023-03-27T12:18:36.141Z,2.40
2023-03-27T12:22:28.537Z,2.10
2023-03-27T12:25:53.381Z,2.00
2023-03-27T12:29:53.714Z,1.90
2023-03-27T12:33:14.292Z,1.90
2023-03-27T12:36:24.483Z,2.30
2023-03-27T12:39:29.079Z,1.70
2023-03-27T12:42:49.419Z,2.20
2023-03-27T12:46:19.998Z,2.00
2023-03-27T12:49:47.997Z,1.30
2023-03-27T12:53:06.155Z,2.10
2023-03-27T12:59:27.120Z,1.90
2023-03-27T13:03:13.859Z,2.20
2023-03-27T13:06:51.568Z,1.90
2023-03-27T13:10:20.634Z,2.10
2023-03-27T13:13:44.825Z,3.30
2023-03-27T13:17:29.618Z,2.60
2023-03-27T13:20:57.879Z,2.40
2023-03-27T13:24:27.374Z,2.10
2023-03-27T13:28:03.542Z,2.00
2023-03-27T13:31:15.721Z,2.30
2023-03-27T13:34:39.854Z,2.20
2023-03-27T13:37:58.296Z,2.70
2023-03-27T13:41:45.866Z,2.20
2023-03-27T13:45:15.320Z,2.00
2023-03-27T13:48:59.511Z,1.80
2023-03-27T13:52:21.719Z,2.30
2023-03-27T13:56:04.082Z,1.80
2023-03-27T13:59:55.607Z,1.30
2023-03-27T14:03:42.072Z,1.90
2023-03-27T14:07:08.061Z,2.30
2023-03-27T14:10:33.226Z,2.10
2023-03-27T14:13:53.452Z,1.90
2023-03-27T14:17:24.612Z,2.40
2023-03-27T14:20:34.526Z,2.40
2023-03-27T14:23:59.205Z,1.90
2023-03-27T14:27:18.776Z,2.10
2023-03-27T14:30:33.276Z,1.90
2023-03-27T14:33:58.020Z,1.60
2023-03-27T14:37:39.417Z,1.30
2023-03-27T14:41:17.581Z,1.50
2023-03-27T14:44:27.490Z,1.70
2023-03-27T14:47:34.275Z,1.60
2023-03-27T14:50:39.906Z,1.30
2023-03-27T14:53:49.560Z,1.60
2023-03-27T14:57:14.779Z,1.50
2023-03-27T15:00:34.441Z,2.10
2023-03-27T15:03:39.118Z,2.10
2023-03-27T15:06:43.341Z,1.80
2023-03-27T15:10:03.701Z,1.10
2023-03-27T15:13:46.243Z,1.80
2023-03-27T15:17:09.128Z,2.40
2023-03-27T15:20:16.069Z,1.90
2023-03-27T15:23:29.391Z,1.60
2023-03-27T15:26:35.564Z,1.30
2023-03-27T15:29:53.539Z,1.50
2023-03-27T15:33:02.211Z,1.70
2023-03-27T15:36:11.352Z,1.20
2023-03-27T15:39:23.921Z,1.00
2023-03-27T15:42:45.204Z,1.20
2023-03-27T15:45:49.315Z,1.40
2023-03-27T15:48:56.572Z,1.70
2023-03-27T15:52:21.171Z,1.30
2023-03-27T15:55:39.703Z,1.00
2023-03-27T15:58:50.737Z,1.70
2023-03-27T16:02:05.558Z,1.80
2023-03-27T16:05:16.595Z,1.60
2023-03-27T16:08:36.593Z,1.90
2023-03-27T16:11:45.953Z,1.30
2023-03-27T16:14:49.938Z,1.70
2023-03-27T16:17:56.668Z,1.40
2023-03-27T16:21:13.417Z,1.60
2023-03-27T16:24:17.384Z,2.50
2023-03-27T16:27:24.219Z,1.60
2023-03-27T16:30:38.926Z,1.70
2023-03-27T16:33:45.385Z,2.10
2023-03-27T16:36:49.704Z,2.20
2023-03-27T16:39:55.049Z,2.00
2023-03-27T16:42:59.026Z,1.70
2023-03-27T16:46:03.529Z,2.80
2023-03-27T16:52:15.719Z,1.70
2023-03-27T16:58:23.958Z,1.80
2023-03-27T17:01:27.999Z,2.00
2023-03-27T17:04:32.119Z,1.70
2023-03-27T17:07:36.505Z,2.10
2023-03-27T17:10:40.820Z,2.30
2023-03-27T17:13:45.259Z,1.40
2023-03-27T17:16:49.608Z,2.60
2023-03-27T17:19:53.739Z,2.40
2023-03-27T17:22:57.927Z,2.50
2023-03-27T17:26:04.013Z,1.90
2023-03-27T17:29:08.620Z,1.90
2023-03-27T17:35:16.762Z,2.00
2023-03-27T17:38:23.007Z,1.70
2023-03-27T17:41:29.077Z,2.80
2023-03-27T17:44:33.518Z,2.60
2023-03-27T17:47:37.513Z,1.90
2023-03-27T17:50:41.567Z,2.40
2023-03-27T17:53:46.074Z,2.80
2023-03-27T17:56:49.989Z,2.70
2023-03-27T17:59:53.996Z,2.10
2023-03-27T18:02:58.326Z,2.30
2023-03-27T18:06:04.181Z,3.00
2023-03-27T18:09:09.736Z,5.10
2023-03-27T18:12:14.456Z,3.80
2023-03-27T18:15:18.581Z,3.00
2023-03-27T18:18:22.905Z,4.30
2023-03-27T18:21:26.915Z,3.30
2023-03-27T18:24:31.446Z,5.50
2023-03-27T18:27:44.661Z,4.90
2023-03-27T18:30:58.451Z,3.20
2023-03-27T18:34:03.153Z,2.70
2023-03-27T18:40:13.277Z,2.10
2023-03-27T18:43:17.456Z,1.90
2023-03-27T18:46:21.526Z,3.10
2023-03-27T18:49:26.198Z,1.90
2023-03-27T18:52:30.215Z,2.20
2023-03-27T18:55:34.141Z,2.00
2023-03-27T18:58:38.134Z,1.90
2023-03-27T19:01:42.158Z,1.50
2023-03-27T19:04:47.940Z,1.80
2023-03-27T19:07:54.286Z,1.90
2023-03-27T19:10:58.473Z,2.70
2023-03-27T19:14:23.312Z,2.50
2023-03-27T19:17:47.318Z,3.20
2023-03-27T19:21:14.458Z,3.70
2023-03-27T19:24:19.902Z,3.50
2023-03-27T19:27:24.776Z,4.60
2023-03-27T19:30:29.834Z,4.90
2023-03-27T19:33:34.946Z,10.70
2023-03-27T19:36:42.060Z,16.10
2023-03-27T19:39:46.438Z,2.30
2023-03-27T19:42:50.568Z,2.10
2023-03-27T19:46:08.257Z,2.10
2023-03-27T19:49:19.451Z,1.60
2023-03-27T19:52:31.369Z,1.40
2023-03-27T19:55:35.393Z,1.70
2023-03-27T19:58:39.406Z,1.70
2023-03-27T20:01:44.865Z,1.40
2023-03-27T20:04:48.971Z,1.80
2023-03-27T20:07:53.094Z,1.60
2023-03-27T20:10:58.003Z,2.00
2023-03-27T20:14:02.965Z,2.20
2023-03-27T20:17:12.150Z,2.20
2023-03-27T20:20:26.248Z,2.20
2023-03-27T20:23:32.117Z,2.30
2023-03-27T20:26:40.633Z,1.50
2023-03-27T20:29:49.469Z,4.00
2023-03-27T20:32:54.048Z,6.40
2023-03-27T20:35:58.343Z,6.20
2023-03-27T20:39:06.849Z,5.80
2023-03-27T20:42:15.553Z,2.50
2023-03-27T20:45:20.066Z,2.60
2023-03-27T20:48:25.237Z,2.80
2023-03-27T20:51:29.217Z,2.10
2023-03-27T20:54:36.753Z,2.80
2023-03-27T20:57:41.172Z,3.30
2023-03-27T21:00:45.360Z,3.50
2023-03-27T21:03:49.749Z,2.60
2023-03-27T21:06:55.045Z,1.70
2023-03-27T21:09:59.010Z,2.00
2023-03-27T21:13:03.811Z,1.60
2023-03-27T21:16:08.611Z,2.10
2023-03-27T21:19:12.797Z,3.00
2023-03-27T21:22:17.189Z,2.20
2023-03-27T21:25:22.205Z,2.30
2023-03-27T21:28:29.835Z,2.30
2023-03-27T21:31:33.860Z,2.10
2023-03-27T21:34:37.835Z,2.30
2023-03-27T21:37:42.255Z,1.70
2023-03-27T21:40:47.336Z,2.90
2023-03-27T21:43:51.653Z,2.60
2023-03-27T21:46:55.662Z,3.00
2023-03-27T21:49:59.975Z,2.00
2023-03-27T21:53:04.003Z,2.40
2023-03-27T21:56:08.474Z,2.90
2023-03-27T21:59:12.442Z,3.70
2023-03-27T22:02:16.439Z,3.90
2023-03-27T22:05:20.783Z,3.80
2023-03-27T22:08:24.798Z,3.50
2023-03-27T22:11:28.824Z,3.60
2023-03-27T22:14:32.848Z,2.70
2023-03-27T22:17:38.093Z,2.20
2023-03-27T22:20:42.060Z,3.30
2023-03-27T22:23:46.396Z,3.50
2023-03-27T22:26:51.490Z,2.60
2023-03-27T22:32:59.456Z,2.50
2023-03-27T22:36:06.062Z,2.50
2023-03-27T22:39:10.073Z,2.30
2023-03-27T22:42:14.051Z,2.70
2023-03-27T22:45:17.979Z,2.50
2023-03-27T22:48:22.079Z,3.30
2023-03-27T22:51:29.616Z,2.70
2023-03-27T22:54:33.637Z,2.90
2023-03-27T22:57:38.164Z,2.90
2023-03-27T23:00:42.731Z,3.70
2023-03-27T23:03:46.727Z,3.40
2023-03-27T23:06:51.235Z,4.30
2023-03-27T23:09:56.070Z,4.30
2023-03-27T23:16:05.116Z,3.20
2023-03-27T23:19:09.029Z,2.80
2023-03-27T23:22:13.027Z,2.90
2023-03-27T23:25:16.981Z,3.10
2023-03-27T23:28:21.586Z,2.90
2023-03-27T23:31:25.742Z,3.90
2023-03-27T23:34:29.726Z,3.30
2023-03-27T23:37:35.193Z,3.00
2023-03-27T23:40:39.195Z,4.30
2023-03-27T23:43:43.621Z,4.00
2023-03-27T23:46:47.637Z,4.20
2023-03-27T23:49:51.654Z,3.50
2023-03-27T23:52:55.583Z,4.80
2023-03-27T23:56:00.756Z,4.60
2023-03-27T23:59:04.881Z,4.70
